Time;durP1;ratioP1;P1;durP2;ratioP2;P2;SDS_P1;SDS_P2;PMS_P1;PMS_P2;Temp;Humidity;BMP_temperature;BMP_pressure;BME280_temperature;BME280_humidity;BME280_pressure;Samples;Min_cycle;Max_cycle;Signal;HPM_P1;HPM_P2
2021/04/22 00:03:22;;;;;;;3.80;2.60;;;18.40;30.50;;;;;;8398798;28;20051;-53
2021/04/22 00:07:23;;;;;;;3.27;2.63;;;18.40;30.00;;;;;;8395922;28;20451;-53
2021/04/22 00:11:24;;;;;;;4.23;2.90;;;18.40;30.00;;;;;;8396010;28;20055;-54
2021/04/22 00:15:24;;;;;;;4.40;2.95;;;18.40;30.00;;;;;;8394082;28;20036;-54
2021/04/22 00:19:25;;;;;;;3.13;2.73;;;18.30;30.00;;;;;;8400354;28;20458;-54
2021/04/22 00:23:26;;;;;;;3.40;2.80;;;18.30;30.00;;;;;;8395894;28;20063;-55
2021/04/22 00:27:26;;;;;;;4.07;2.37;;;18.30;30.00;;;;;;8393708;28;20047;-53
2021/04/22 00:31:27;;;;;;;3.83;2.80;;;18.30;30.00;;;;;;8386091;28;20063;-54
2021/04/22 00:35:27;;;;;;;5.47;3.23;;;18.30;30.00;;;;;;8364055;28;20044;-55
2021/04/22 00:39:28;;;;;;;4.90;3.23;;;18.30;30.00;;;;;;8395628;28;20498;-55
2021/04/22 00:43:28;;;;;;;5.17;3.00;;;18.30;30.00;;;;;;8395046;28;20052;-54
2021/04/22 00:47:29;;;;;;;3.57;3.13;;;18.30;30.00;;;;;;8394875;28;20068;-54
2021/04/22 00:51:30;;;;;;;3.00;2.53;;;18.20;30.00;;;;;;8392810;27;20377;-52
2021/04/22 00:55:31;;;;;;;4.80;3.00;;;18.20;30.00;;;;;;8399152;28;20029;-54
2021/04/22 00:59:31;;;;;;;3.00;2.70;;;18.20;30.00;;;;;;8367757;28;20045;-53
2021/04/22 01:03:32;;;;;;;3.33;2.83;;;18.20;30.00;;;;;;8375505;28;20552;-54
2021/04/22 01:07:33;;;;;;;4.07;2.70;;;18.20;30.00;;;;;;8393508;28;20446;-54
2021/04/22 01:11:33;;;;;;;3.63;2.77;;;18.20;30.00;;;;;;8397884;28;20032;-54
2021/04/22 01:15:34;;;;;;;4.70;3.17;;;18.20;30.10;;;;;;8391827;28;20395;-54
2021/04/22 01:19:35;;;;;;;4.50;2.90;;;18.20;30.00;;;;;;8393595;28;20048;-55
2021/04/22 01:23:36;;;;;;;3.83;2.97;;;18.20;30.60;;;;;;8383336;28;20059;-54
2021/04/22 01:27:40;;;;;;;3.03;2.40;;;18.10;30.00;;;;;;8360040;28;20116;-54
2021/04/22 01:31:41;;;;;;;3.58;3.22;;;18.10;30.00;;;;;;8397497;28;20037;-54
2021/04/22 01:35:46;;;;;;;4.23;3.10;;;18.10;30.00;;;;;;8369292;28;20385;-54
2021/04/22 01:39:47;;;;;;;3.88;3.25;;;18.10;30.10;;;;;;8390890;28;20032;-54
2021/04/22 01:43:47;;;;;;;4.37;3.00;;;18.10;30.00;;;;;;8386142;28;20036;-55
2021/04/22 01:47:48;;;;;;;4.50;3.30;;;18.10;30.10;;;;;;8364481;28;20559;-55
2021/04/22 01:51:49;;;;;;;3.30;2.80;;;18.10;30.10;;;;;;8358781;28;20041;-54
2021/04/22 01:55:51;;;;;;;6.63;2.97;;;18.10;30.10;;;;;;8360567;28;20508;-55
2021/04/22 01:59:51;;;;;;;4.13;3.05;;;18.00;30.10;;;;;;8385386;28;20036;-50
2021/04/22 02:03:52;;;;;;;3.83;2.80;;;18.00;30.10;;;;;;8393972;28;20040;-54
2021/04/22 02:07:54;;;;;;;4.37;2.73;;;18.00;30.10;;;;;;8394293;28;20033;-53
2021/04/22 02:11:55;;;;;;;3.33;2.75;;;18.00;30.20;;;;;;8390413;28;20044;-54
2021/04/22 02:15:55;;;;;;;3.43;2.90;;;18.00;30.20;;;;;;8379012;28;20116;-54
2021/04/22 02:19:56;;;;;;;3.03;2.70;;;18.00;30.20;;;;;;8362760;28;20047;-54
2021/04/22 02:23:56;;;;;;;4.20;2.90;;;18.00;30.20;;;;;;8393799;28;20047;-54
2021/04/22 02:27:58;;;;;;;3.93;3.20;;;18.00;30.20;;;;;;8367663;28;20536;-54
2021/04/22 02:31:58;;;;;;;4.43;3.00;;;18.00;30.20;;;;;;8391468;28;20102;-54
2021/04/22 02:35:59;;;;;;;3.50;2.60;;;17.90;30.20;;;;;;8389488;28;20032;-55
2021/04/22 02:40:00;;;;;;;5.47;2.90;;;17.90;30.20;;;;;;8395791;28;20029;-54
2021/04/22 02:44:00;;;;;;;3.73;2.83;;;17.90;30.20;;;;;;8391011;28;20051;-54
2021/04/22 02:48:01;;;;;;;5.43;2.77;;;17.90;30.20;;;;;;8389962;28;20267;-54
2021/04/22 02:52:03;;;;;;;3.20;2.90;;;17.90;30.20;;;;;;8391010;28;20036;-54
2021/04/22 02:56:04;;;;;;;;;;;17.90;30.30;;;;;;8391682;28;20033;-55
2021/04/22 03:00:12;;;;;;;4.35;3.30;;;17.90;30.30;;;;;;8393803;28;19919;-55
2021/04/22 03:04:13;;;;;;;3.78;2.95;;;17.90;30.30;;;;;;8390685;28;20049;-54
2021/04/22 03:08:14;;;;;;;3.90;2.93;;;17.80;30.20;;;;;;8375068;28;20504;-53
2021/04/22 03:12:14;;;;;;;3.45;3.08;;;17.80;30.20;;;;;;8363014;28;20037;-53
2021/04/22 03:16:15;;;;;;;4.03;3.00;;;17.80;30.30;;;;;;8396143;28;20119;-53
2021/04/22 03:20:17;;;;;;;3.30;2.50;;;17.80;30.30;;;;;;8390978;28;20048;-54
2021/04/22 03:24:17;;;;;;;2.63;2.42;;;17.80;30.30;;;;;;8364048;28;20045;-54
2021/04/22 03:28:18;;;;;;;3.70;2.53;;;17.80;30.30;;;;;;8390765;28;20044;-54
2021/04/22 03:32:18;;;;;;;4.03;2.67;;;17.80;30.30;;;;;;8394682;28;20036;-54
2021/04/22 03:36:19;;;;;;;3.13;2.83;;;17.80;30.30;;;;;;8365492;28;20041;-54
2021/04/22 03:40:21;;;;;;;3.93;2.90;;;17.80;30.40;;;;;;8387248;28;20048;-54
2021/04/22 03:44:21;;;;;;;;;;;17.80;30.40;;;;;;8397157;28;20392;-54
2021/04/22 03:48:22;;;;;;;4.55;3.10;;;17.70;30.30;;;;;;8394921;28;19912;-54
2021/04/22 03:52:22;;;;;;;3.53;2.43;;;17.70;30.30;;;;;;8401068;28;20037;-54
2021/04/22 03:56:23;;;;;;;3.87;3.33;;;17.70;30.30;;;;;;8396174;28;20075;-54
2021/04/22 04:00:24;;;;;;;4.07;3.03;;;17.70;30.30;;;;;;8378020;28;20433;-54
2021/04/22 04:04:24;;;;;;;4.05;3.00;;;17.70;30.30;;;;;;8370789;28;20047;-54
2021/04/22 04:08:25;;;;;;;4.27;3.20;;;17.70;30.30;;;;;;8400380;28;20032;-53
2021/04/22 04:12:27;;;;;;;4.03;2.97;;;17.70;30.30;;;;;;8394180;28;20404;-54
2021/04/22 04:16:27;;;;;;;4.65;3.15;;;17.70;30.30;;;;;;8395439;28;20036;-54
2021/04/22 04:20:28;;;;;;;6.47;3.00;;;17.70;30.30;;;;;;8395554;28;20032;-55
2021/04/22 04:24:28;;;;;;;4.07;3.30;;;17.70;30.30;;;;;;8392553;28;20045;-54
2021/04/22 04:28:29;;;;;;;4.97;3.40;;;17.70;30.30;;;;;;8366584;28;20094;-56
2021/04/22 04:32:29;;;;;;;4.40;2.97;;;17.70;30.30;;;;;;8387433;28;20036;-54
2021/04/22 04:36:30;;;;;;;3.70;2.83;;;17.70;30.30;;;;;;8393296;28;20071;-54
2021/04/22 04:40:31;;;;;;;4.33;3.10;;;17.70;30.30;;;;;;8395128;28;20477;-53
2021/04/22 04:44:31;;;;;;;5.13;3.40;;;17.60;30.20;;;;;;8397978;28;20044;-54
2021/04/22 04:48:32;;;;;;;3.53;2.87;;;17.70;30.30;;;;;;8392768;28;20458;-54
2021/04/22 04:52:33;;;;;;;3.83;2.97;;;17.60;30.30;;;;;;8394110;28;20452;-55
2021/04/22 04:56:34;;;;;;;5.03;3.20;;;17.70;30.30;;;;;;8394477;28;20041;-54
2021/04/22 05:00:34;;;;;;;4.37;3.30;;;17.60;30.30;;;;;;8396863;28;20461;-54
2021/04/22 05:04:35;;;;;;;4.57;3.30;;;17.60;30.30;;;;;;8393995;28;20052;-54
2021/04/22 05:08:35;;;;;;;4.93;3.70;;;17.60;30.30;;;;;;8393860;28;20064;-54
2021/04/22 05:12:36;;;;;;;4.97;3.30;;;17.60;30.30;;;;;;8392689;28;20063;-54
2021/04/22 05:16:37;;;;;;;5.07;3.43;;;17.60;30.40;;;;;;8393400;28;20181;-54
2021/04/22 05:20:37;;;;;;;5.07;3.60;;;17.60;30.30;;;;;;8398003;28;20082;-54
2021/04/22 05:24:38;;;;;;;5.90;4.20;;;17.60;30.40;;;;;;8391615;28;20118;-54
2021/04/22 05:28:39;;;;;;;5.63;3.60;;;17.60;30.40;;;;;;8393000;28;20444;-53
2021/04/22 05:32:39;;;;;;;5.03;3.77;;;17.60;30.40;;;;;;8393198;28;20025;-54
2021/04/22 05:36:40;;;;;;;6.23;3.87;;;17.60;30.40;;;;;;8395713;28;20079;-54
2021/04/22 05:40:40;;;;;;;5.13;3.67;;;17.60;30.40;;;;;;8392861;28;20123;-54
2021/04/22 05:44:42;;;;;;;5.50;3.40;;;17.60;30.40;;;;;;8373800;28;20037;-54
2021/04/22 05:48:43;;;;;;;4.75;3.38;;;17.50;30.40;;;;;;8368023;28;20033;-54
2021/04/22 05:52:44;;;;;;;5.30;3.70;;;17.60;30.40;;;;;;8394671;28;20040;-54
2021/04/22 05:56:45;;;;;;;4.40;3.05;;;17.60;30.40;;;;;;8395278;28;20828;-54
2021/04/22 06:00:46;;;;;;;4.28;3.05;;;17.60;30.30;;;;;;8390275;28;20094;-54
2021/04/22 06:04:47;;;;;;;5.80;3.40;;;17.60;30.20;;;;;;8392076;28;20505;-55
2021/04/22 06:08:48;;;;;;;4.80;3.47;;;17.70;30.20;;;;;;8363832;28;20025;-54
2021/04/22 06:12:49;;;;;;;5.70;3.27;;;17.60;30.20;;;;;;8361427;28;20240;-54
2021/04/22 06:16:49;;;;;;;4.75;3.50;;;17.70;30.20;;;;;;8385983;28;20497;-54
2021/04/22 06:20:50;;;;;;;5.60;3.77;;;17.70;30.20;;;;;;8390289;28;20028;-49
2021/04/22 06:24:51;;;;;;;6.03;3.93;;;17.70;30.20;;;;;;8382746;28;20139;-55
2021/04/22 06:28:51;;;;;;;4.03;3.60;;;17.70;30.20;;;;;;8379698;28;20035;-55
2021/04/22 06:32:52;;;;;;;7.53;3.73;;;17.70;30.20;;;;;;8389622;28;20028;-54
2021/04/22 06:36:53;;;;;;;5.53;4.15;;;17.70;30.20;;;;;;8390952;28;20037;-55
2021/04/22 06:40:53;;;;;;;5.20;3.60;;;17.70;30.20;;;;;;8391018;28;20037;-55
2021/04/22 06:44:54;;;;;;;5.83;4.00;;;17.70;30.10;;;;;;8389415;28;20049;-55
2021/04/22 06:48:55;;;;;;;6.60;3.87;;;17.70;30.10;;;;;;8395787;28;20029;-54
2021/04/22 06:52:55;;;;;;;5.33;4.00;;;17.80;30.00;;;;;;8390950;28;20047;-53
2021/04/22 06:56:56;;;;;;;6.00;3.83;;;17.90;30.00;;;;;;8389545;28;20032;-53
2021/04/22 07:00:56;;;;;;;6.57;3.67;;;18.00;29.80;;;;;;8390629;28;20500;-53
2021/04/22 07:04:57;;;;;;;6.13;4.33;;;18.10;29.70;;;;;;8395119;28;20444;-55
2021/04/22 07:08:57;;;;;;;8.40;5.03;;;18.20;29.70;;;;;;8394125;28;20082;-53
2021/04/22 07:12:58;;;;;;;9.97;5.43;;;18.20;29.60;;;;;;8387382;28;20103;-53
2021/04/22 07:17:00;;;;;;;8.23;5.23;;;18.20;29.60;;;;;;8382170;28;20033;-54
2021/04/22 07:21:01;;;;;;;9.70;5.65;;;18.20;29.60;;;;;;8400055;28;20037;-56
2021/04/22 07:25:02;;;;;;;10.63;6.60;;;18.20;29.70;;;;;;8396940;28;20079;-53
2021/04/22 07:29:04;;;;;;;10.32;6.32;;;18.20;29.80;;;;;;8397067;28;20047;-53
2021/04/22 07:33:06;;;;;;;11.68;6.80;;;18.20;29.80;;;;;;8395535;28;20043;-53
2021/04/22 07:37:07;;;;;;;14.98;7.55;;;18.20;29.90;;;;;;8396474;28;20566;-53
2021/04/22 07:41:07;;;;;;;11.50;7.72;;;18.20;29.90;;;;;;8399193;28;20037;-53
2021/04/22 07:45:09;;;;;;;11.00;7.50;;;18.20;30.00;;;;;;8392983;28;20478;-53
2021/04/22 07:49:11;;;;;;;12.32;7.60;;;18.20;29.90;;;;;;8394738;28;20044;-53
2021/04/22 07:53:11;;;;;;;13.93;8.32;;;18.20;30.00;;;;;;8394159;28;20469;-53
2021/04/22 07:57:12;;;;;;;11.90;6.80;;;18.10;30.00;;;;;;8399057;28;20051;-54
2021/04/22 08:01:12;;;;;;;12.73;7.33;;;18.10;30.10;;;;;;8395956;28;20041;-53
2021/04/22 08:05:15;;;;;;;15.30;7.47;;;18.10;30.20;;;;;;8376083;28;20052;-54
2021/04/22 08:09:15;;;;;;;11.45;7.35;;;18.00;30.20;;;;;;8372264;28;20040;-53
2021/04/22 08:13:18;;;;;;;10.77;7.37;;;18.10;30.40;;;;;;8395987;28;20063;-54
2021/04/22 08:17:19;;;;;;;11.90;6.97;;;18.00;30.30;;;;;;8399747;28;20041;-53
2021/04/22 08:21:19;;;;;;;12.50;7.40;;;18.00;30.40;;;;;;8369740;28;20045;-54
2021/04/22 08:25:25;;;;;;;11.10;7.50;;;18.00;30.40;;;;;;8377246;28;20041;-54
2021/04/22 08:29:26;;;;;;;9.52;6.13;;;18.00;30.40;;;;;;8395418;28;20186;-54
2021/04/22 08:33:31;;;;;;;12.00;6.77;;;18.00;30.40;;;;;;8397774;28;20028;-53
2021/04/22 08:37:34;;;;;;;11.35;6.60;;;18.10;30.50;;;;;;8395279;28;20089;-54
2021/04/22 08:41:36;;;;;;;9.00;6.45;;;18.10;30.50;;;;;;8394928;28;20032;-54
2021/04/22 08:45:37;;;;;;;9.98;6.43;;;18.10;30.50;;;;;;8383564;28;20498;-54
2021/04/22 08:49:37;;;;;;;10.70;6.53;;;18.10;30.50;;;;;;8363229;28;20040;-54
2021/04/22 08:53:42;;;;;;;10.37;6.83;;;18.10;30.50;;;;;;8398010;28;20485;-54
2021/04/22 08:57:43;;;;;;;9.52;5.88;;;18.10;30.50;;;;;;8392583;28;20066;-53
2021/04/22 09:01:44;;;;;;;7.87;5.70;;;18.20;30.60;;;;;;8394160;28;20445;-54
2021/04/22 09:05:45;;;;;;;9.00;5.83;;;18.20;30.70;;;;;;8392925;28;20071;-55
2021/04/22 09:09:45;;;;;;;9.07;6.70;;;18.20;31.20;;;;;;8396948;28;20067;-53
2021/04/22 09:13:47;;;;;;;9.27;5.80;;;18.20;30.70;;;;;;8392926;28;20029;-53
2021/04/22 09:17:55;;;;;;;8.27;5.40;;;18.20;30.70;;;;;;8393708;28;20040;-54
2021/04/22 09:21:57;;;;;;;9.27;5.55;;;18.20;30.70;;;;;;8392231;28;20542;-55
2021/04/22 09:26:02;;;;;;;8.98;5.95;;;18.30;30.70;;;;;;8395650;28;20036;-55
2021/04/22 09:30:04;;;;;;;9.57;6.03;;;18.20;30.70;;;;;;8394287;28;20048;-55
2021/04/22 09:34:11;;;;;;;8.05;6.30;;;18.30;30.70;;;;;;8369735;28;20041;-55
2021/04/22 09:38:13;;;;;;;7.78;5.80;;;18.30;30.70;;;;;;8356223;28;20041;-54
2021/04/22 09:42:17;;;;;;;6.30;4.75;;;18.30;30.80;;;;;;8386136;28;20032;-56
2021/04/22 09:46:22;;;;;;;7.55;5.32;;;18.30;30.80;;;;;;8396915;28;20044;-55
2021/04/22 09:50:26;;;;;;;7.53;5.28;;;18.30;30.80;;;;;;8392619;28;20040;-55
2021/04/22 09:54:26;;;;;;;8.55;5.43;;;18.30;30.80;;;;;;8390880;28;20031;-54
2021/04/22 09:58:29;;;;;;;9.17;5.50;;;18.30;30.80;;;;;;8392325;28;20035;-55
2021/04/22 10:02:52;;;;;;;7.55;5.38;;;18.30;30.90;;;;;;8392179;28;20040;-55
2021/04/22 10:06:52;;;;;;;7.43;5.18;;;18.30;30.90;;;;;;8394801;28;20066;-54
2021/04/22 10:11:07;;;;;;;8.43;5.00;;;18.30;30.90;;;;;;8391894;28;20398;-55
2021/04/22 10:15:18;;;;;;;8.27;4.95;;;18.40;30.90;;;;;;8371315;28;20029;-55
2021/04/22 10:19:19;;;;;;;7.57;4.88;;;18.40;30.90;;;;;;8369542;28;20402;-54
2021/04/22 10:23:20;;;;;;;8.50;4.85;;;18.40;30.90;;;;;;8391076;28;20053;-53
2021/04/22 10:27:24;;;;;;;7.77;4.80;;;18.40;30.90;;;;;;8361255;28;20060;-54
2021/04/22 10:31:27;;;;;;;8.55;5.35;;;18.50;30.90;;;;;;8370397;28;20439;-54
2021/04/22 10:35:31;;;;;;;8.27;5.20;;;18.50;30.80;;;;;;8379851;28;20035;-55
2021/04/22 10:39:33;;;;;;;6.78;4.70;;;18.50;30.90;;;;;;8389731;28;20029;-53
2021/04/22 10:43:36;;;;;;;7.22;4.40;;;18.60;30.80;;;;;;8395509;28;20028;-54
2021/04/22 10:47:36;;;;;;;9.13;5.50;;;18.60;30.90;;;;;;8391155;28;20143;-55
2021/04/22 10:51:37;;;;;;;9.50;5.57;;;18.60;31.60;;;;;;8389307;28;20464;-55
2021/04/22 10:55:40;;;;;;;8.93;5.80;;;18.60;31.60;;;;;;8390903;28;20060;-54
2021/04/22 10:59:44;;;;;;;7.35;4.90;;;18.60;31.30;;;;;;8367099;28;20060;-55
2021/04/22 11:03:48;;;;;;;6.65;4.78;;;18.60;31.00;;;;;;8392824;28;20041;-55
2021/04/22 11:08:04;;;;;;;6.68;4.55;;;18.60;31.10;;;;;;8390894;28;20045;-54
2021/04/22 11:12:04;;;;;;;8.80;5.47;;;18.60;31.20;;;;;;8347078;28;20045;-55
2021/04/22 11:16:05;;;;;;;6.43;4.57;;;18.60;31.30;;;;;;8365481;28;20032;-56
2021/04/22 11:20:20;;;;;;;6.90;4.53;;;18.60;31.40;;;;;;8395015;28;20036;-57
2021/04/22 11:24:29;;;;;;;7.43;4.82;;;18.60;31.40;;;;;;8388369;28;20443;-55
2021/04/22 11:28:33;;;;;;;6.82;4.97;;;18.60;31.60;;;;;;8390392;28;20045;-56
2021/04/22 11:32:40;;;;;;;7.97;4.20;;;18.50;31.60;;;;;;8390334;28;20039;-56
2021/04/22 11:36:52;;;;;;;8.63;5.30;;;18.50;31.70;;;;;;8388414;28;20500;-55
2021/04/22 11:40:55;;;;;;;6.43;4.53;;;18.50;31.80;;;;;;8394563;28;20029;-56
2021/04/22 11:45:07;;;;;;;7.60;4.38;;;18.50;32.00;;;;;;8388224;28;20089;-55
2021/04/22 11:49:09;;;;;;;6.75;4.57;;;18.50;32.10;;;;;;8390128;28;20107;-56
2021/04/22 11:53:12;;;;;;;6.07;4.47;;;18.50;32.20;;;;;;8378834;28;20033;-56
2021/04/22 11:57:14;;;;;;;8.95;4.22;;;18.50;32.40;;;;;;8363722;28;20063;-56
2021/04/22 12:01:15;;;;;;;5.05;3.55;;;18.50;32.30;;;;;;8400233;28;20033;-55
2021/04/22 12:05:19;;;;;;;8.13;4.87;;;18.50;32.40;;;;;;8395501;28;20059;-56
2021/04/22 12:09:32;;;;;;;6.25;4.00;;;18.50;32.50;;;;;;8394052;28;20040;-55
2021/04/22 12:13:34;;;;;;;5.90;3.97;;;18.50;32.40;;;;;;8395625;28;20516;-55
2021/04/22 12:17:35;;;;;;;5.68;3.85;;;18.50;32.40;;;;;;8398438;28;20040;-55
2021/04/22 12:21:38;;;;;;;4.38;3.47;;;18.50;32.50;;;;;;8395780;28;20028;-56
2021/04/22 12:25:39;;;;;;;5.82;3.72;;;18.50;32.50;;;;;;8395104;28;20252;-55
2021/04/22 12:29:40;;;;;;;4.77;3.43;;;18.50;32.70;;;;;;8395184;28;20398;-55
2021/04/22 12:33:40;;;;;;;5.03;3.33;;;18.50;32.60;;;;;;8393481;28;20363;-55
2021/04/22 12:37:41;;;;;;;5.67;3.80;;;18.50;32.70;;;;;;8399581;28;20071;-55
2021/04/22 12:41:41;;;;;;;4.80;3.47;;;18.50;32.80;;;;;;8366665;28;20033;-55
2021/04/22 12:45:42;;;;;;;5.33;3.63;;;18.50;32.80;;;;;;8377501;28;20513;-55
2021/04/22 12:49:51;;;;;;;5.37;3.57;;;18.50;32.80;;;;;;8394638;28;20031;-55
2021/04/22 12:53:51;;;;;;;4.65;3.47;;;18.60;32.80;;;;;;8397125;28;20511;-55
2021/04/22 12:57:54;;;;;;;4.60;3.43;;;18.60;32.90;;;;;;8394406;28;20032;-55
2021/04/22 13:01:54;;;;;;;4.25;3.38;;;18.50;32.90;;;;;;8393758;28;20115;-56
2021/04/22 13:06:06;;;;;;;4.97;3.60;;;18.60;32.90;;;;;;8390230;28;20049;-56
2021/04/22 13:10:14;;;;;;;5.13;3.55;;;18.60;32.90;;;;;;8389100;28;20496;-55
2021/04/22 13:14:16;;;;;;;4.72;3.40;;;18.60;32.80;;;;;;8393905;28;20262;-55
2021/04/22 13:18:18;;;;;;;;;;;18.60;32.80;;;;;;8388547;28;20040;-55
2021/04/22 13:22:19;;;;;;;5.50;3.95;;;18.60;32.70;;;;;;8393518;28;19912;-56
2021/04/22 13:26:23;;;;;;;6.73;4.60;;;18.70;33.30;;;;;;8390384;28;20507;-56
2021/04/22 13:30:35;;;;;;;6.47;3.80;;;18.70;32.70;;;;;;8364755;28;20118;-55
2021/04/22 13:34:44;;;;;;;6.03;4.95;;;18.70;32.60;;;;;;8382322;28;20063;-55
2021/04/22 13:38:57;;;;;;;5.68;4.10;;;18.80;32.60;;;;;;8386270;28;20029;-54
2021/04/22 13:42:59;;;;;;;6.60;4.85;;;18.80;32.70;;;;;;8391579;28;20485;-55
2021/04/22 13:47:04;;;;;;;7.07;3.95;;;18.80;32.60;;;;;;8373406;28;20041;-55
2021/04/22 13:51:14;;;;;;;7.63;4.47;;;18.80;32.60;;;;;;8362168;28;20025;-52
2021/04/22 13:55:15;;;;;;;5.03;3.75;;;18.80;32.80;;;;;;8395653;28;20131;-53
2021/04/22 13:59:23;;;;;;;6.37;4.20;;;18.90;32.70;;;;;;8391455;28;20049;-53
2021/04/22 14:03:34;;;;;;;6.03;4.38;;;18.90;32.70;;;;;;8389894;28;20078;-53
2021/04/22 14:07:35;;;;;;;5.68;4.15;;;18.90;32.80;;;;;;8391897;28;20051;-52
2021/04/22 14:11:45;;;;;;;5.53;4.13;;;18.90;32.60;;;;;;8396365;28;20037;-51
2021/04/22 14:15:45;;;;;;;5.32;3.83;;;18.90;32.80;;;;;;8389713;28;20040;-53
2021/04/22 14:19:46;;;;;;;5.07;3.80;;;18.90;32.60;;;;;;8371722;28;20044;-51
2021/04/22 14:23:47;;;;;;;7.53;4.17;;;19.00;32.60;;;;;;8369283;28;20041;-53
2021/04/22 14:27:47;;;;;;;5.73;3.80;;;19.00;32.70;;;;;;8384240;28;20486;-52
2021/04/22 14:31:51;;;;;;;4.83;3.77;;;19.00;32.60;;;;;;8395765;28;20128;-49
2021/04/22 14:35:52;;;;;;;5.63;3.90;;;19.00;32.60;;;;;;8387226;28;20043;-51
2021/04/22 14:39:53;;;;;;;6.00;4.27;;;19.00;32.50;;;;;;8373184;28;20386;-52
2021/04/22 14:43:54;;;;;;;5.53;4.20;;;19.00;32.40;;;;;;8391122;28;20108;-53
2021/04/22 14:47:54;;;;;;;5.37;3.73;;;19.00;32.70;;;;;;8393835;28;20524;-50
2021/04/22 14:51:55;;;;;;;5.17;3.23;;;19.00;32.70;;;;;;8390970;28;20412;-53
2021/04/22 14:55:57;;;;;;;4.50;3.33;;;19.00;32.50;;;;;;8382567;28;20059;-48
2021/04/22 14:59:57;;;;;;;4.57;3.55;;;19.00;32.60;;;;;;8388852;28;20037;-51
2021/04/22 15:03:58;;;;;;;4.37;3.17;;;19.10;32.60;;;;;;8395467;28;20439;-55
2021/04/22 15:07:59;;;;;;;4.77;3.50;;;19.10;32.80;;;;;;8390542;28;20052;-56
2021/04/22 15:12:00;;;;;;;5.05;3.45;;;19.10;32.40;;;;;;8364671;27;20393;-56
2021/04/22 15:16:00;;;;;;;4.73;3.37;;;19.10;32.50;;;;;;8390179;28;20058;-57
2021/04/22 15:20:04;;;;;;;3.77;3.23;;;19.10;32.40;;;;;;8389922;28;20037;-56
2021/04/22 15:24:05;;;;;;;4.65;3.58;;;19.10;32.30;;;;;;8393163;28;20267;-57
2021/04/22 15:28:07;;;;;;;5.50;3.67;;;19.10;32.20;;;;;;8378292;28;20041;-53
2021/04/22 15:32:07;;;;;;;4.20;3.80;;;19.10;32.20;;;;;;8381454;28;20043;-55
2021/04/22 15:36:09;;;;;;;6.07;3.87;;;19.10;32.00;;;;;;8395536;28;20549;-56
2021/04/22 15:40:10;;;;;;;;;;;19.10;32.00;;;;;;8401846;28;20032;-55
2021/04/22 15:44:10;;;;;;;6.00;3.93;;;19.10;32.00;;;;;;8395532;28;19998;-51
2021/04/22 15:48:11;;;;;;;4.63;3.60;;;19.10;32.00;;;;;;8394727;28;20477;-55
2021/04/22 15:52:11;;;;;;;10.47;4.03;;;19.10;31.90;;;;;;8396040;28;20493;-55
2021/04/22 15:56:12;;;;;;;4.90;3.87;;;19.10;31.90;;;;;;8395563;28;20032;-55
2021/04/22 16:00:13;;;;;;;4.88;4.13;;;19.10;32.00;;;;;;8365976;27;20418;-54
2021/04/22 16:04:14;;;;;;;4.28;3.80;;;19.10;31.90;;;;;;8354116;27;20030;-52
2021/04/22 16:08:15;;;;;;;7.57;4.13;;;19.10;31.90;;;;;;8345833;28;20049;-54
2021/04/22 16:12:17;;;;;;;4.82;3.50;;;19.10;32.10;;;;;;8392949;28;20040;-54
2021/04/22 16:16:18;;;;;;;4.43;3.72;;;19.10;32.20;;;;;;8403108;28;20033;-54
2021/04/22 16:20:18;;;;;;;6.40;3.73;;;19.10;32.30;;;;;;8377212;28;20049;-54
2021/04/22 16:24:19;;;;;;;5.33;4.00;;;19.10;32.30;;;;;;8395537;28;20133;-54
2021/04/22 16:28:20;;;;;;;4.30;3.80;;;19.10;32.40;;;;;;8394971;28;20405;-55
2021/04/22 16:32:20;;;;;;;6.23;4.03;;;19.10;32.60;;;;;;8399495;28;20087;-55
2021/04/22 16:36:21;;;;;;;6.03;4.63;;;19.10;32.70;;;;;;8379237;28;20072;-55
2021/04/22 16:40:21;;;;;;;5.87;4.40;;;19.10;32.60;;;;;;8384850;28;20029;-55
2021/04/22 16:44:23;;;;;;;7.07;5.13;;;19.10;32.60;;;;;;8394604;28;20082;-53
2021/04/22 16:48:25;;;;;;;6.45;4.60;;;19.10;32.80;;;;;;8393020;28;20041;-53
2021/04/22 16:52:26;;;;;;;7.60;5.70;;;19.10;32.90;;;;;;8392451;28;20120;-55
2021/04/22 16:56:31;;;;;;;7.73;5.33;;;19.20;32.90;;;;;;8362153;28;20037;-54
2021/04/22 17:00:33;;;;;;;8.38;6.13;;;19.10;32.80;;;;;;8376831;28;20051;-55
2021/04/22 17:04:33;;;;;;;7.63;5.45;;;19.10;32.90;;;;;;8393769;28;20067;-53
2021/04/22 17:08:34;;;;;;;6.63;5.63;;;19.10;32.90;;;;;;8398548;28;20043;-53
2021/04/22 17:12:34;;;;;;;7.90;5.97;;;19.10;32.80;;;;;;8391003;28;20028;-51
2021/04/22 17:16:37;;;;;;;8.53;5.90;;;19.10;32.60;;;;;;8393818;28;20040;-54
2021/04/22 17:20:38;;;;;;;6.50;5.22;;;19.10;32.70;;;;;;8393010;28;20036;-51
2021/04/22 17:24:39;;;;;;;8.60;5.43;;;19.10;32.60;;;;;;8391171;28;20080;-53
2021/04/22 17:28:39;;;;;;;7.63;5.40;;;19.10;32.50;;;;;;8372916;28;20053;-53
2021/04/22 17:32:44;;;;;;;8.00;5.70;;;19.10;32.50;;;;;;8360588;28;20043;-52
2021/04/22 17:36:45;;;;;;;7.32;5.05;;;19.10;32.50;;;;;;8389939;28;20036;-53
2021/04/22 17:40:47;;;;;;;7.70;5.47;;;19.10;32.40;;;;;;8392677;28;20042;-56
2021/04/22 17:44:48;;;;;;;6.55;5.05;;;19.10;32.40;;;;;;8396120;28;20040;-54
2021/04/22 17:48:48;;;;;;;7.47;5.27;;;19.10;32.50;;;;;;8390778;28;20032;-54
2021/04/22 17:52:52;;;;;;;6.83;5.10;;;19.10;32.40;;;;;;8392027;28;20078;-54
2021/04/22 17:56:52;;;;;;;6.82;5.13;;;19.00;32.40;;;;;;8390463;28;20036;-53
2021/04/22 18:00:53;;;;;;;9.00;5.77;;;19.00;32.30;;;;;;8383568;28;20033;-55
2021/04/22 18:04:53;;;;;;;8.30;5.47;;;19.00;32.50;;;;;;8395170;28;20055;-54
2021/04/22 18:08:54;;;;;;;8.10;6.30;;;19.00;32.40;;;;;;8390278;28;20052;-53
2021/04/22 18:12:55;;;;;;;8.20;5.17;;;19.00;32.40;;;;;;8392129;28;20074;-53
2021/04/22 18:16:55;;;;;;;9.75;5.65;;;19.00;32.50;;;;;;8389100;28;20119;-53
2021/04/22 18:20:56;;;;;;;8.83;5.17;;;19.00;32.40;;;;;;8368554;28;20021;-53
2021/04/22 18:24:57;;;;;;;7.03;4.77;;;19.00;32.40;;;;;;8391688;28;20498;-56
2021/04/22 18:28:57;;;;;;;6.70;5.03;;;19.00;32.40;;;;;;8391564;28;20040;-56
2021/04/22 18:33:00;;;;;;;7.20;5.00;;;19.00;32.40;;;;;;8370009;28;20032;-57
2021/04/22 18:37:01;;;;;;;7.00;5.35;;;19.00;32.40;;;;;;8396270;28;20060;-57
2021/04/22 18:41:02;;;;;;;5.80;4.80;;;19.00;32.40;;;;;;8389692;28;20032;-57
2021/04/22 18:45:06;;;;;;;7.47;5.00;;;19.00;32.40;;;;;;8389652;28;20041;-57
2021/04/22 18:49:06;;;;;;;5.13;4.32;;;19.00;32.30;;;;;;8390965;28;20393;-58
2021/04/22 18:53:07;;;;;;;6.77;4.90;;;19.00;32.30;;;;;;8391069;28;20032;-57
2021/04/22 18:57:09;;;;;;;6.88;5.03;;;18.90;32.20;;;;;;8394248;28;20070;-57
2021/04/22 19:01:09;;;;;;;6.63;5.53;;;18.90;32.20;;;;;;8391028;28;20032;-57
2021/04/22 19:05:10;;;;;;;7.70;4.70;;;18.90;32.10;;;;;;8375228;28;20429;-56
2021/04/22 19:09:11;;;;;;;7.28;4.75;;;18.90;32.10;;;;;;8361931;28;20532;-56
2021/04/22 19:13:13;;;;;;;4.50;4.00;;;18.90;32.10;;;;;;8395474;28;20029;-56
2021/04/22 19:17:16;;;;;;;4.10;3.67;;;18.90;31.90;;;;;;8391065;28;20037;-56
2021/04/22 19:21:17;;;;;;;5.53;4.15;;;18.90;31.80;;;;;;8388994;28;20047;-56
2021/04/22 19:25:19;;;;;;;7.15;4.00;;;18.90;31.80;;;;;;8390737;28;20139;-56
2021/04/22 19:29:19;;;;;;;4.10;3.17;;;18.80;31.60;;;;;;8390208;28;20028;-54
2021/04/22 19:33:20;;;;;;;6.93;3.77;;;18.80;31.40;;;;;;8359125;28;20500;-56
2021/04/22 19:37:35;;;;;;;4.60;3.50;;;18.80;31.10;;;;;;8381257;28;20044;-57
2021/04/22 19:41:36;;;;;;;5.07;3.60;;;18.80;31.00;;;;;;8390149;28;20032;-56
2021/04/22 19:45:37;;;;;;;3.22;2.85;;;18.80;31.00;;;;;;8388460;28;20523;-57
2021/04/22 19:49:37;;;;;;;4.88;3.28;;;18.80;30.70;;;;;;8394662;28;20460;-57
2021/04/22 19:53:40;;;;;;;6.70;3.43;;;18.80;30.70;;;;;;8390040;28;20036;-56
2021/04/22 19:57:41;;;;;;;5.85;3.50;;;18.80;30.50;;;;;;8388679;28;20032;-54
2021/04/22 20:01:42;;;;;;;5.32;2.70;;;18.80;30.50;;;;;;8390119;28;20492;-55
2021/04/22 20:05:44;;;;;;;4.33;2.83;;;18.80;30.30;;;;;;8390922;28;20048;-57
2021/04/22 20:09:45;;;;;;;4.47;2.58;;;18.80;30.20;;;;;;8391606;28;20062;-57
2021/04/22 20:13:46;;;;;;;6.13;2.23;;;18.80;30.10;;;;;;8390881;28;20032;-56
2021/04/22 20:17:48;;;;;;;4.15;3.22;;;18.80;30.00;;;;;;8396028;28;20085;-56
2021/04/22 20:21:48;;;;;;;4.13;2.70;;;18.80;30.00;;;;;;8393831;28;20131;-56
2021/04/22 20:25:49;;;;;;;5.17;2.60;;;18.70;29.90;;;;;;8400210;28;20041;-55
2021/04/22 20:29:50;;;;;;;4.47;2.60;;;18.70;29.80;;;;;;8395187;28;20103;-55
2021/04/22 20:33:52;;;;;;;3.47;2.40;;;18.70;29.80;;;;;;8393850;28;20484;-56
2021/04/22 20:37:55;;;;;;;4.03;2.50;;;18.70;29.80;;;;;;8395127;28;20025;-55
2021/04/22 20:41:56;;;;;;;3.28;2.30;;;18.70;29.70;;;;;;8397719;28;20120;-55
2021/04/22 20:45:57;;;;;;;3.70;2.70;;;18.70;29.60;;;;;;8395006;28;20045;-55
2021/04/22 20:50:00;;;;;;;;;;;18.70;29.50;;;;;;8394976;28;20082;-55
2021/04/22 20:54:05;;;;;;;5.25;2.38;;;18.70;29.50;;;;;;8392489;28;19916;-55
2021/04/22 20:58:07;;;;;;;6.07;2.42;;;18.70;29.40;;;;;;8394434;28;20501;-55
2021/04/22 21:02:07;;;;;;;;;;;18.70;29.30;;;;;;8399232;28;20037;-55